BCS943 LIPZ-LIMC
Flight info
| Callsign | BCS943 |
|---|---|
| Flight time | N/A |
| Altitude | 24000 |
| Route | VIC L615 IBUGO L615 OSKOR DCT LEGLO DCT PEXUG |
| Aircraft | B738/M-SDE2E3FGHIRWXY/LB1 |
Departure
| Time | N/A |
|---|---|
| Airport | Venice Marco Polo Airport (LIPZ) |
Arrival
| Time | 2026-05-05 21:27 |
|---|---|
| Airport | Milan Malpensa International Airport (LIMC) |
| Time | Latitude | Longitude | Altitude | Speed | Heading |
|---|---|---|---|---|---|
| 2026-05-05 20:58 | 45.57555 | 8.81361 | 16998 ft | 248 kts | 187° |
| 2026-05-05 20:58 | 45.55825 | 8.81559 | 16989 ft | 256 kts | 167° |
| 2026-05-05 20:58 | 45.54217 | 8.82715 | 16989 ft | 265 kts | 145° |
| 2026-05-05 20:58 | 45.53010 | 8.84749 | 16923 ft | 276 kts | 122° |
| 2026-05-05 20:59 | 45.52475 | 8.87388 | 16671 ft | 284 kts | 95° |
| 2026-05-05 20:59 | 45.52770 | 8.90185 | 16305 ft | 289 kts | 70° |
| 2026-05-05 20:59 | 45.53782 | 8.92677 | 15932 ft | 291 kts | 53° |
| 2026-05-05 20:59 | 45.55007 | 8.94971 | 15638 ft | 290 kts | 53° |
| 2026-05-05 21:00 | 45.56230 | 8.97241 | 15348 ft | 288 kts | 53° |
| 2026-05-05 21:00 | 45.57539 | 8.99391 | 15039 ft | 286 kts | 36° |
| 2026-05-05 21:00 | 45.59244 | 9.00785 | 14741 ft | 281 kts | 21° |
| 2026-05-05 21:00 | 45.61045 | 9.01851 | 14482 ft | 279 kts | 20° |
| 2026-05-05 21:01 | 45.62833 | 9.02908 | 14201 ft | 277 kts | 21° |
| 2026-05-05 21:01 | 45.64612 | 9.03946 | 14008 ft | 275 kts | 14° |
| 2026-05-05 21:01 | 45.66490 | 9.04213 | 14009 ft | 271 kts | 347° |
| 2026-05-05 21:01 | 45.68231 | 9.03414 | 13985 ft | 263 kts | 324° |
| 2026-05-05 21:02 | 45.69597 | 9.01769 | 13992 ft | 254 kts | 302° |
| 2026-05-05 21:02 | 45.70406 | 8.99575 | 14000 ft | 248 kts | 281° |
| 2026-05-05 21:02 | 45.70586 | 8.97153 | 13995 ft | 245 kts | 261° |
| 2026-05-05 21:02 | 45.70134 | 8.94825 | 13996 ft | 244 kts | 241° |
| 2026-05-05 21:03 | 45.69180 | 8.92825 | 14009 ft | 244 kts | 226° |
| 2026-05-05 21:03 | 45.67814 | 8.91400 | 13990 ft | 246 kts | 206° |
| 2026-05-05 21:03 | 45.66241 | 8.90415 | 13997 ft | 247 kts | 205° |
| 2026-05-05 21:03 | 45.64665 | 8.89457 | 13975 ft | 244 kts | 205° |
| 2026-05-05 21:04 | 45.63614 | 8.88821 | 13884 ft | 242 kts | 205° |
| 2026-05-05 21:04 | 45.62477 | 8.88134 | 13684 ft | 240 kts | 205° |
| 2026-05-05 21:04 | 45.60894 | 8.87357 | 13284 ft | 243 kts | 188° |
| 2026-05-05 21:04 | 45.59204 | 8.87570 | 12922 ft | 247 kts | 164° |
| 2026-05-05 21:05 | 45.57694 | 8.88760 | 12617 ft | 252 kts | 140° |
| 2026-05-05 21:05 | 45.56649 | 8.90773 | 12273 ft | 257 kts | 115° |
| 2026-05-05 21:05 | 45.56320 | 8.93285 | 11931 ft | 262 kts | 87° |
| 2026-05-05 21:05 | 45.56831 | 8.95762 | 11595 ft | 264 kts | 58° |
| 2026-05-05 21:06 | 45.58046 | 8.97642 | 11287 ft | 262 kts | 33° |
| 2026-05-05 21:06 | 45.59649 | 8.98849 | 11032 ft | 259 kts | 22° |
| 2026-05-05 21:06 | 45.61332 | 8.99843 | 11031 ft | 263 kts | 21° |
| 2026-05-05 21:06 | 45.63021 | 9.00832 | 10990 ft | 261 kts | 21° |
| 2026-05-05 21:07 | 45.64692 | 9.01826 | 10982 ft | 259 kts | 21° |
| 2026-05-05 21:07 | 45.66432 | 9.02324 | 10974 ft | 255 kts | 352° |
| 2026-05-05 21:07 | 45.68118 | 9.01648 | 10999 ft | 253 kts | 326° |
| 2026-05-05 21:07 | 45.69430 | 9.00031 | 11001 ft | 249 kts | 302° |
| 2026-05-05 21:08 | 45.70136 | 8.97808 | 10994 ft | 246 kts | 277° |
| 2026-05-05 21:08 | 45.70108 | 8.95396 | 10999 ft | 241 kts | 252° |
| 2026-05-05 21:08 | 45.69398 | 8.93280 | 10958 ft | 234 kts | 231° |
| 2026-05-05 21:08 | 45.68231 | 8.91695 | 10761 ft | 231 kts | 211° |
| 2026-05-05 21:09 | 45.66794 | 8.90675 | 10446 ft | 232 kts | 204° |
| 2026-05-05 21:09 | 45.65302 | 8.89787 | 10142 ft | 232 kts | 203° |
| 2026-05-05 21:09 | 45.63809 | 8.88906 | 9868 ft | 231 kts | 203° |
| 2026-05-05 21:09 | 45.62327 | 8.88022 | 9563 ft | 231 kts | 203° |
| 2026-05-05 21:10 | 45.60800 | 8.87348 | 9226 ft | 231 kts | 183° |
| 2026-05-05 21:10 | 45.59227 | 8.87743 | 8911 ft | 232 kts | 156° |
| 2026-05-05 21:10 | 45.57934 | 8.89116 | 8595 ft | 235 kts | 130° |
| 2026-05-05 21:10 | 45.57217 | 8.91212 | 8266 ft | 239 kts | 102° |
| 2026-05-05 21:11 | 45.57281 | 8.93555 | 7944 ft | 243 kts | 72° |
| 2026-05-05 21:11 | 45.58154 | 8.95596 | 7634 ft | 244 kts | 43° |
| 2026-05-05 21:11 | 45.59566 | 8.96916 | 7355 ft | 243 kts | 25° |
| 2026-05-05 21:11 | 45.61117 | 8.97872 | 7077 ft | 242 kts | 22° |
| 2026-05-05 21:12 | 45.62676 | 8.98785 | 6811 ft | 242 kts | 22° |
| 2026-05-05 21:12 | 45.64231 | 8.99664 | 6549 ft | 240 kts | 13° |
| 2026-05-05 21:12 | 45.65860 | 8.99546 | 6201 ft | 237 kts | 333° |
| 2026-05-05 21:12 | 45.67062 | 8.98025 | 6038 ft | 233 kts | 298° |
| 2026-05-05 21:13 | 45.67593 | 8.95858 | 6032 ft | 232 kts | 271° |
| 2026-05-05 21:13 | 45.67345 | 8.93625 | 5995 ft | 226 kts | 242° |
| 2026-05-05 21:13 | 45.66384 | 8.91920 | 5991 ft | 221 kts | 213° |
| 2026-05-05 21:13 | 45.64979 | 8.91055 | 5995 ft | 222 kts | 188° |
| 2026-05-05 21:14 | 45.63437 | 8.90894 | 6005 ft | 223 kts | 181° |
| 2026-05-05 21:14 | 45.61887 | 8.90888 | 5990 ft | 223 kts | 180° |
| 2026-05-05 21:14 | 45.60333 | 8.90897 | 5991 ft | 223 kts | 180° |
| 2026-05-05 21:14 | 45.58781 | 8.90899 | 5982 ft | 223 kts | 180° |
| 2026-05-05 21:15 | 45.57228 | 8.90891 | 5981 ft | 223 kts | 181° |
| 2026-05-05 21:15 | 45.55682 | 8.90877 | 5977 ft | 222 kts | 181° |
| 2026-05-05 21:15 | 45.54141 | 8.90859 | 5984 ft | 221 kts | 181° |
| 2026-05-05 21:15 | 45.52621 | 8.90840 | 5983 ft | 221 kts | 181° |
| 2026-05-05 21:16 | 45.51088 | 8.90820 | 5985 ft | 220 kts | 181° |
| 2026-05-05 21:16 | 45.49563 | 8.90922 | 5986 ft | 220 kts | 172° |
| 2026-05-05 21:16 | 45.48081 | 8.91322 | 5984 ft | 214 kts | 169° |
| 2026-05-05 21:16 | 45.46639 | 8.91751 | 5978 ft | 210 kts | 169° |
| 2026-05-05 21:17 | 45.45210 | 8.92165 | 5987 ft | 210 kts | 170° |
| 2026-05-05 21:17 | 45.43776 | 8.92569 | 5995 ft | 211 kts | 170° |
| 2026-05-05 21:17 | 45.42333 | 8.92967 | 5994 ft | 211 kts | 170° |
| 2026-05-05 21:17 | 45.40886 | 8.93363 | 5998 ft | 212 kts | 170° |
| 2026-05-05 21:18 | 45.39432 | 8.93759 | 5996 ft | 213 kts | 170° |
| 2026-05-05 21:18 | 45.37975 | 8.94156 | 5993 ft | 213 kts | 170° |
| 2026-05-05 21:18 | 45.36516 | 8.94552 | 5994 ft | 213 kts | 170° |
| 2026-05-05 21:18 | 45.35063 | 8.94946 | 5988 ft | 213 kts | 170° |
| 2026-05-05 21:19 | 45.33603 | 8.95283 | 5972 ft | 211 kts | 182° |
| 2026-05-05 21:19 | 45.32226 | 8.94723 | 5850 ft | 207 kts | 215° |
| 2026-05-05 21:19 | 45.31137 | 8.93407 | 5593 ft | 206 kts | 222° |
| 2026-05-05 21:19 | 45.30273 | 8.91781 | 5218 ft | 210 kts | 250° |
| 2026-05-05 21:20 | 45.30197 | 8.89723 | 4900 ft | 214 kts | 285° |
| 2026-05-05 21:20 | 45.30977 | 8.87934 | 4537 ft | 219 kts | 317° |
| 2026-05-05 21:20 | 45.32177 | 8.86612 | 4253 ft | 218 kts | 323° |
| 2026-05-05 21:20 | 45.33404 | 8.85358 | 4031 ft | 217 kts | 323° |
| 2026-05-05 21:21 | 45.34628 | 8.84109 | 4004 ft | 217 kts | 323° |
| 2026-05-05 21:21 | 45.35853 | 8.82858 | 3995 ft | 217 kts | 323° |
| 2026-05-05 21:21 | 45.37082 | 8.81604 | 3991 ft | 217 kts | 323° |
| 2026-05-05 21:21 | 45.38341 | 8.80419 | 3980 ft | 216 kts | 337° |
| 2026-05-05 21:22 | 45.39778 | 8.79863 | 4011 ft | 215 kts | 347° |
| 2026-05-05 21:22 | 45.41216 | 8.79413 | 3996 ft | 205 kts | 348° |
| 2026-05-05 21:22 | 45.42569 | 8.79012 | 3976 ft | 192 kts | 348° |
| 2026-05-05 21:22 | 45.43858 | 8.78646 | 4036 ft | 187 kts | 349° |
| 2026-05-05 21:23 | 45.45142 | 8.78288 | 3944 ft | 189 kts | 349° |
| 2026-05-05 21:23 | 45.46433 | 8.77931 | 3707 ft | 189 kts | 349° |
| 2026-05-05 21:23 | 45.47696 | 8.77582 | 3465 ft | 185 kts | 349° |
| 2026-05-05 21:23 | 45.48950 | 8.77236 | 3221 ft | 182 kts | 349° |
| 2026-05-05 21:24 | 45.50198 | 8.76891 | 2982 ft | 183 kts | 350° |
| 2026-05-05 21:24 | 45.51446 | 8.76546 | 2744 ft | 183 kts | 350° |
| 2026-05-05 21:24 | 45.52694 | 8.76202 | 2501 ft | 183 kts | 350° |
| 2026-05-05 21:24 | 45.53944 | 8.75857 | 2244 ft | 182 kts | 350° |
| 2026-05-05 21:25 | 45.55170 | 8.75518 | 2000 ft | 175 kts | 351° |
| 2026-05-05 21:25 | 45.56312 | 8.75202 | 1781 ft | 160 kts | 351° |
| 2026-05-05 21:25 | 45.57365 | 8.74911 | 1566 ft | 149 kts | 350° |
| 2026-05-05 21:25 | 45.58445 | 8.74614 | 1421 ft | 167 kts | 349° |
| 2026-05-05 21:26 | 45.59580 | 8.74301 | 1141 ft | 161 kts | 349° |
| 2026-05-05 21:26 | 45.60656 | 8.74011 | 909 ft | 154 kts | 348° |
| 2026-05-05 21:26 | 45.61684 | 8.73711 | 769 ft | 153 kts | 348° |
| 2026-05-05 21:26 | 45.62731 | 8.73410 | 737 ft | 148 kts | 349° |
| 2026-05-05 21:27 | 45.63567 | 8.73193 | 737 ft | 77 kts | 341° |
| 2026-05-05 21:27 | 45.63776 | 8.72981 | 736 ft | 27 kts | 313° |
| 2026-05-05 21:27 | 45.63844 | 8.72851 | 734 ft | 0 kts | 303° |
| 2026-05-05 21:28 | 45.63848 | 8.72842 | 735 ft | 6 kts | 302° |
| 2026-05-05 21:28 | 45.63903 | 8.72726 | 735 ft | 17 kts | 304° |
| 2026-05-05 21:28 | 45.63888 | 8.72594 | 735 ft | 16 kts | 194° |
| 2026-05-05 21:28 | 45.63779 | 8.72618 | 735 ft | 16 kts | 168° |
| 2026-05-05 21:29 | 45.63674 | 8.72645 | 735 ft | 15 kts | 170° |
| 2026-05-05 21:29 | 45.63569 | 8.72672 | 734 ft | 15 kts | 170° |
| 2026-05-05 21:29 | 45.63459 | 8.72696 | 735 ft | 17 kts | 182° |
| 2026-05-05 21:29 | 45.63400 | 8.72573 | 734 ft | 16 kts | 258° |
| 2026-05-05 21:30 | 45.63377 | 8.72418 | 736 ft | 16 kts | 258° |
| 2026-05-05 21:30 | 45.63356 | 8.72269 | 737 ft | 15 kts | 259° |
| 2026-05-05 21:30 | 45.63336 | 8.72126 | 738 ft | 14 kts | 259° |
| 2026-05-05 21:30 | 45.63325 | 8.72044 | 737 ft | 0 kts | 259° |
| 2026-05-05 21:31 | 45.63321 | 8.72022 | 736 ft | 6 kts | 249° |
| 2026-05-05 21:32 | 45.63288 | 8.71978 | 736 ft | 7 kts | 193° |
| 2026-05-05 21:32 | 45.63238 | 8.71983 | 734 ft | 7 kts | 171° |
| 2026-05-05 21:32 | 45.63179 | 8.71997 | 736 ft | 11 kts | 169° |
| 2026-05-05 21:32 | 45.63086 | 8.72022 | 736 ft | 16 kts | 169° |
| 2026-05-05 21:33 | 45.62962 | 8.72056 | 736 ft | 20 kts | 169° |
| 2026-05-05 21:33 | 45.62814 | 8.72097 | 736 ft | 22 kts | 169° |
| 2026-05-05 21:33 | 45.62665 | 8.72138 | 736 ft | 21 kts | 170° |
| 2026-05-05 21:33 | 45.62521 | 8.72178 | 734 ft | 21 kts | 168° |
| 2026-05-05 21:34 | 45.62410 | 8.72208 | 736 ft | 9 kts | 170° |
| 2026-05-05 21:34 | 45.62351 | 8.72224 | 736 ft | 9 kts | 169° |
| 2026-05-05 21:34 | 45.62294 | 8.72239 | 736 ft | 8 kts | 169° |
| 2026-05-05 21:34 | 45.62231 | 8.72235 | 736 ft | 11 kts | 208° |
| 2026-05-05 21:35 | 45.62207 | 8.72202 | 736 ft | 0 kts | 243° |
| 2026-05-05 21:35 | 45.62195 | 8.72155 | 736 ft | 10 kts | 253° |
| 2026-05-05 21:35 | 45.62183 | 8.72042 | 736 ft | 12 kts | 258° |
| 2026-05-05 21:35 | 45.62129 | 8.71968 | 736 ft | 12 kts | 178° |
| 2026-05-05 21:36 | 45.62047 | 8.71992 | 736 ft | 12 kts | 166° |
| 2026-05-05 21:36 | 45.61966 | 8.72017 | 735 ft | 12 kts | 169° |
| 2026-05-05 21:36 | 45.61888 | 8.72040 | 736 ft | 11 kts | 168° |
| 2026-05-05 21:36 | 45.61811 | 8.72063 | 736 ft | 11 kts | 168° |
| 2026-05-05 21:37 | 45.61737 | 8.72082 | 736 ft | 11 kts | 170° |
| 2026-05-05 21:37 | 45.61664 | 8.72100 | 736 ft | 10 kts | 169° |
| 2026-05-05 21:37 | 45.61595 | 8.72114 | 736 ft | 3 kts | 189° |
| 2026-05-05 21:37 | 45.61578 | 8.72086 | 735 ft | 4 kts | 249° |
| 2026-05-05 21:38 | 45.61571 | 8.72046 | 736 ft | 4 kts | 256° |
| 2026-05-05 21:38 | 45.61566 | 8.72015 | 736 ft | 5 kts | 257° |